Time;durP1;ratioP1;P1;durP2;ratioP2;P2;SDS_P1;SDS_P2;PMS_P1;PMS_P2;Temp;Humidity;BMP_temperature;BMP_pressure;BME280_temperature;BME280_humidity;BME280_pressure;Samples;Min_cycle;Max_cycle;Signal;HPM_P1;HPM_P2
2023/12/22 00:02:17;;;;;;;;;;;11.60;99.90;;;;;;5074759;28;19913;-78
2023/12/22 00:04:43;;;;;;;;;;;11.60;99.90;;;;;;5074149;28;19916;-78
2023/12/22 00:07:08;;;;;;;;;;;11.60;99.90;;;;;;5073461;28;19970;-78
2023/12/22 00:09:33;;;;;;;;;;;11.50;99.90;;;;;;5052847;28;19909;-79
2023/12/22 00:11:59;;;;;;;;;;;11.50;99.90;;;;;;5052860;28;19920;-78
2023/12/22 00:14:24;;;;;;;;;;;11.50;99.90;;;;;;5052982;28;20333;-78
2023/12/22 00:16:50;;;;;;;;;;;11.40;99.90;;;;;;5052772;28;20005;-78
2023/12/22 00:19:15;;;;;;;;;;;11.50;99.90;;;;;;5054261;28;19909;-78
2023/12/22 00:21:41;;;;;;;;;;;11.50;99.90;;;;;;5035981;28;20375;-79
2023/12/22 00:24:07;;;;;;;;;;;11.50;99.90;;;;;;5054317;28;19909;-78
2023/12/22 00:26:32;;;;;;;;;;;11.50;99.90;;;;;;5036469;28;19921;-79
2023/12/22 00:28:58;;;;;;;;;;;11.50;99.90;;;;;;5052707;28;20364;-80
2023/12/22 00:31:23;;;;;;;;;;;11.50;99.90;;;;;;5058929;28;19950;-78
2023/12/22 00:33:49;;;;;;;;;;;11.50;99.90;;;;;;5055863;28;20387;-78
2023/12/22 00:36:14;;;;;;;;;;;11.50;99.90;;;;;;5068862;28;19908;-78
2023/12/22 00:38:40;;;;;;;;;;;11.50;99.90;;;;;;5093292;28;20331;-78
2023/12/22 00:41:06;;;;;;;;;;;11.40;99.90;;;;;;5075459;28;19923;-78
2023/12/22 00:43:31;;;;;;;;;;;11.50;99.90;;;;;;5093545;28;20397;-78
2023/12/22 00:45:57;;;;;;;;;;;11.50;99.90;;;;;;5092850;28;19916;-78
2023/12/22 00:48:23;;;;;;;;;;;11.50;99.90;;;;;;5075419;28;19916;-79
2023/12/22 00:50:48;;;;;;;;;;;11.60;99.90;;;;;;5047521;28;20291;-78
2023/12/22 00:53:14;;;;;;;;;;;11.60;99.90;;;;;;5060850;28;20008;-78
2023/12/22 00:55:39;;;;;;;;;;;11.60;99.90;;;;;;5037709;28;19913;-78
2023/12/22 00:58:05;;;;;;;;;;;11.60;99.90;;;;;;5055306;28;20310;-78
2023/12/22 01:00:30;;;;;;;;;;;11.60;99.90;;;;;;5054910;28;19962;-78
2023/12/22 01:02:56;;;;;;;;;;;11.60;99.90;;;;;;5055318;28;19908;-78
2023/12/22 01:05:21;;;;;;;;;;;11.50;99.90;;;;;;5072623;28;20340;-78
2023/12/22 01:07:47;;;;;;;;;;;11.60;99.90;;;;;;5055128;28;19916;-78
2023/12/22 01:10:12;;;;;;;;;;;11.60;99.90;;;;;;5051641;28;19991;-78
2023/12/22 01:12:38;;;;;;;;;;;11.60;99.90;;;;;;5053255;28;19909;-78
2023/12/22 01:15:04;;;;;;;;;;;11.70;99.90;;;;;;5053351;28;19912;-78
2023/12/22 01:17:29;;;;;;;;;;;11.60;99.90;;;;;;5035094;28;19913;-78
2023/12/22 01:19:55;;;;;;;;;;;11.60;99.90;;;;;;5052644;28;19954;-79
2023/12/22 01:22:22;;;;;;;;;;;11.50;99.90;;;;;;5053311;28;19916;-78
2023/12/22 01:24:48;;;;;;;;;;;11.50;99.90;;;;;;5051095;28;19981;-79
2023/12/22 01:27:13;;;;;;;;;;;11.40;99.90;;;;;;5052934;28;20004;-78
2023/12/22 01:29:39;;;;;;;;;;;11.40;99.90;;;;;;5051850;28;19921;-77
2023/12/22 01:32:05;;;;;;;;;;;11.40;99.90;;;;;;5054623;28;19974;-78
2023/12/22 01:34:30;;;;;;;;;;;11.40;99.90;;;;;;5055233;28;20008;-78
2023/12/22 01:36:56;;;;;;;;;;;11.30;99.90;;;;;;5092484;28;19946;-77
2023/12/22 01:39:21;;;;;;;;;;;11.40;99.90;;;;;;5093374;28;19977;-78
2023/12/22 01:41:47;;;;;;;;;;;11.40;99.90;;;;;;5093311;28;19908;-78
2023/12/22 01:44:12;;;;;;;;;;;11.40;99.90;;;;;;5078240;28;19912;-78
2023/12/22 01:46:38;;;;;;;;;;;11.40;99.90;;;;;;5072771;28;19909;-78
2023/12/22 01:49:04;;;;;;;;;;;11.40;99.90;;;;;;5072583;28;19912;-79
2023/12/22 01:51:31;;;;;;;;;;;11.50;99.90;;;;;;5042044;28;19954;-78
2023/12/22 01:53:56;;;;;;;;;;;11.50;99.90;;;;;;5053031;28;20259;-78
2023/12/22 01:56:22;;;;;;;;;;;11.50;99.90;;;;;;5054695;28;19916;-78
2023/12/22 01:58:48;;;;;;;;;;;11.50;99.90;;;;;;5072775;28;19993;-78
2023/12/22 02:01:13;;;;;;;;;;;11.60;99.90;;;;;;5054824;28;19908;-79
2023/12/22 02:03:39;;;;;;;;;;;11.60;99.90;;;;;;5073125;28;19908;-78
2023/12/22 02:06:05;;;;;;;;;;;11.60;99.90;;;;;;5054687;28;20326;-78
2023/12/22 02:08:32;;;;;;;;;;;11.60;99.90;;;;;;5054260;28;20243;-78
2023/12/22 02:10:57;;;;;;;;;;;11.60;99.90;;;;;;5072486;28;19934;-80
2023/12/22 02:13:23;;;;;;;;;;;11.60;99.90;;;;;;5054785;28;20372;-78
2023/12/22 02:15:52;;;;;;;;;;;11.70;99.90;;;;;;5054795;28;19934;-78
2023/12/22 02:18:21;;;;;;;;;;;11.70;99.90;;;;;;5072835;28;19940;-78
2023/12/22 02:20:47;;;;;;;;;;;11.70;99.90;;;;;;5072545;28;19913;-78
2023/12/22 02:23:12;;;;;;;;;;;11.70;99.90;;;;;;5072706;28;20000;-78
2023/12/22 02:25:38;;;;;;;;;;;11.70;99.90;;;;;;5054565;28;20414;-78
2023/12/22 02:28:06;;;;;;;;;;;11.70;99.90;;;;;;5054502;28;19995;-78
2023/12/22 02:30:47;;;;;;;;;;;11.70;99.90;;;;;;5056564;28;19929;-78
2023/12/22 02:33:15;;;;;;;;;;;11.70;99.90;;;;;;5038202;28;20003;-78
2023/12/22 02:35:41;;;;;;;;;;;11.70;99.90;;;;;;5037959;28;20275;-78
2023/12/22 02:38:07;;;;;;;;;;;11.70;99.90;;;;;;5037347;28;20398;-78
2023/12/22 02:40:33;;;;;;;;;;;11.70;99.90;;;;;;5037952;28;19909;-79
2023/12/22 02:42:59;;;;;;;;;;;11.70;99.90;;;;;;5038045;28;20414;-78
2023/12/22 02:45:24;;;;;;;;;;;11.70;99.90;;;;;;5038046;28;20375;-79
2023/12/22 02:47:50;;;;;;;;;;;11.80;99.90;;;;;;5038318;28;19936;-79
2023/12/22 02:50:16;;;;;;;;;;;11.80;99.90;;;;;;5065755;28;19997;-79
2023/12/22 02:52:41;;;;;;;;;;;11.70;99.90;;;;;;5048847;28;20224;-79
2023/12/22 02:55:10;;;;;;;;;;;11.70;99.90;;;;;;5057520;28;19954;-78
2023/12/22 02:57:35;;;;;;;;;;;11.70;99.90;;;;;;5057468;28;19966;-78
2023/12/22 03:00:01;;;;;;;;;;;11.70;99.90;;;;;;5075686;28;20321;-78
2023/12/22 03:02:26;;;;;;;;;;;11.80;99.90;;;;;;5075453;28;19958;-79
2023/12/22 03:04:52;;;;;;;;;;;11.80;99.90;;;;;;5057454;28;19909;-78
2023/12/22 03:07:17;;;;;;;;;;;11.80;99.90;;;;;;5056815;28;20395;-80
2023/12/22 03:09:43;;;;;;;;;;;11.80;99.90;;;;;;5053804;28;19959;-78
2023/12/22 03:12:09;;;;;;;;;;;11.80;99.90;;;;;;5037349;28;19934;-78
2023/12/22 03:14:35;;;;;;;;;;;11.80;99.90;;;;;;5037358;28;19916;-80
2023/12/22 03:17:01;;;;;;;;;;;11.80;99.90;;;;;;5055402;28;19909;-80
2023/12/22 03:19:27;;;;;;;;;;;11.80;99.90;;;;;;5037426;28;19937;-79
2023/12/22 03:21:53;;;;;;;;;;;11.70;99.90;;;;;;5053789;28;19909;-80
2023/12/22 03:24:19;;;;;;;;;;;11.70;99.90;;;;;;5037305;28;20378;-78
2023/12/22 03:26:45;;;;;;;;;;;11.70;99.90;;;;;;5053750;28;19913;-79
2023/12/22 03:29:11;;;;;;;;;;;11.70;99.90;;;;;;5055244;28;19936;-78
2023/12/22 03:31:36;;;;;;;;;;;11.70;99.90;;;;;;5061509;28;19925;-79
2023/12/22 03:34:02;;;;;;;;;;;11.70;99.90;;;;;;5053641;28;19909;-78
2023/12/22 03:36:27;;;;;;;;;;;11.70;99.90;;;;;;5069861;28;20359;-78
2023/12/22 03:38:53;;;;;;;;;;;11.70;99.90;;;;;;5074557;28;19944;-79
2023/12/22 03:41:18;;;;;;;;;;;11.70;99.90;;;;;;5073362;28;19908;-78
2023/12/22 03:43:44;;;;;;;;;;;11.60;99.90;;;;;;5073477;28;19951;-78
2023/12/22 03:46:09;;;;;;;;;;;11.60;99.90;;;;;;5073648;28;19916;-79
2023/12/22 03:48:35;;;;;;;;;;;11.60;99.90;;;;;;5073302;28;20371;-78
2023/12/22 03:51:00;;;;;;;;;;;11.60;99.90;;;;;;5041507;28;19913;-78
2023/12/22 03:53:26;;;;;;;;;;;11.60;99.90;;;;;;5033727;28;19916;-79
2023/12/22 03:55:51;;;;;;;;;;;11.60;99.90;;;;;;5037001;28;20364;-78
2023/12/22 03:58:17;;;;;;;;;;;11.70;99.90;;;;;;5053608;28;19916;-79
2023/12/22 04:00:42;;;;;;;;;;;11.60;99.90;;;;;;5055019;28;20295;-78
2023/12/22 04:03:08;;;;;;;;;;;11.60;99.90;;;;;;5054436;28;19979;-78
2023/12/22 04:05:33;;;;;;;;;;;11.60;99.90;;;;;;5053531;28;19919;-79
2023/12/22 04:07:59;;;;;;;;;;;11.60;99.90;;;;;;5054161;28;20040;-80
2023/12/22 04:10:24;;;;;;;;;;;11.70;99.90;;;;;;5049419;28;19932;-78
2023/12/22 04:12:50;;;;;;;;;;;11.60;99.90;;;;;;5032866;28;19913;-78
2023/12/22 04:15:15;;;;;;;;;;;11.70;99.90;;;;;;5034288;28;19909;-79
2023/12/22 04:17:41;;;;;;;;;;;11.60;99.90;;;;;;5032731;28;19913;-79
2023/12/22 04:20:07;;;;;;;;;;;11.60;99.90;;;;;;5034175;28;20273;-78
2023/12/22 04:22:32;;;;;;;;;;;11.50;99.90;;;;;;5032763;28;19909;-78
2023/12/22 04:24:58;;;;;;;;;;;11.50;99.90;;;;;;5034168;28;19909;-79
2023/12/22 04:27:24;;;;;;;;;;;11.50;99.90;;;;;;5032794;28;19923;-78
2023/12/22 04:29:49;;;;;;;;;;;11.50;99.90;;;;;;5039461;28;19917;-78
2023/12/22 04:32:15;;;;;;;;;;;11.50;99.90;;;;;;5039847;28;19928;-78
2023/12/22 04:34:40;;;;;;;;;;;11.40;99.90;;;;;;5034178;28;19920;-78
2023/12/22 04:37:06;;;;;;;;;;;11.40;99.90;;;;;;5073642;28;19977;-78
2023/12/22 04:39:31;;;;;;;;;;;11.40;99.90;;;;;;5072044;28;19916;-79
2023/12/22 04:41:57;;;;;;;;;;;11.30;99.90;;;;;;5073643;28;19908;-79
2023/12/22 04:44:22;;;;;;;;;;;11.20;99.90;;;;;;5073605;28;20406;-78
2023/12/22 04:46:49;;;;;;;;;;;11.10;99.90;;;;;;5073479;28;19912;-78
2023/12/22 04:49:14;;;;;;;;;;;11.20;99.90;;;;;;5066342;28;20011;-78
2023/12/22 04:51:40;;;;;;;;;;;11.10;99.90;;;;;;5042309;28;20399;-78
2023/12/22 04:54:05;;;;;;;;;;;11.10;99.90;;;;;;5031916;28;20022;-78
2023/12/22 04:56:31;;;;;;;;;;;11.10;99.90;;;;;;5052031;28;19913;-79
2023/12/22 04:58:56;;;;;;;;;;;11.10;99.90;;;;;;5051984;28;20434;-78
2023/12/22 05:01:22;;;;;;;;;;;11.10;99.90;;;;;;5052080;28;19909;-79
2023/12/22 05:03:47;;;;;;;;;;;11.10;99.90;;;;;;5053305;28;19909;-78
2023/12/22 05:06:13;;;;;;;;;;;11.10;99.90;;;;;;5049992;28;20280;-78
2023/12/22 05:08:38;;;;;;;;;;;11.20;99.90;;;;;;5044200;28;19921;-78
2023/12/22 05:11:04;;;;;;;;;;;11.20;99.90;;;;;;5046862;28;19951;-78
2023/12/22 05:13:29;;;;;;;;;;;11.20;99.90;;;;;;5044968;28;19917;-78
2023/12/22 05:15:55;;;;;;;;;;;11.20;99.90;;;;;;5052119;28;20320;-79
2023/12/22 05:18:20;;;;;;;;;;;11.20;99.90;;;;;;5051757;28;19909;-78
2023/12/22 05:20:46;;;;;;;;;;;11.30;99.90;;;;;;5052014;28;19923;-78
2023/12/22 05:23:11;;;;;;;;;;;11.30;99.90;;;;;;5051798;28;19915;-80
2023/12/22 05:25:37;;;;;;;;;;;11.30;99.90;;;;;;5053265;28;20371;-78
2023/12/22 05:28:03;;;;;;;;;;;11.30;99.90;;;;;;5051172;28;20015;-78
2023/12/22 05:30:28;;;;;;;;;;;11.30;99.90;;;;;;5051582;28;19964;-79
2023/12/22 05:32:54;;;;;;;;;;;11.30;99.90;;;;;;5053198;28;19908;-78
2023/12/22 05:35:20;;;;;;;;;;;11.40;99.90;;;;;;5047579;28;19913;-78
2023/12/22 05:37:45;;;;;;;;;;;11.40;99.90;;;;;;5031609;28;19910;-79
2023/12/22 05:40:11;;;;;;;;;;;11.40;99.90;;;;;;5031951;28;19909;-78
2023/12/22 05:42:37;;;;;;;;;;;11.30;99.90;;;;;;5031574;28;19909;-78
2023/12/22 05:45:03;;;;;;;;;;;11.30;99.90;;;;;;5032986;28;19909;-78
2023/12/22 05:47:28;;;;;;;;;;;11.30;99.90;;;;;;5031693;28;19913;-78
2023/12/22 05:49:54;;;;;;;;;;;11.30;99.90;;;;;;5038748;28;19920;-78
2023/12/22 05:52:19;;;;;;;;;;;11.30;99.90;;;;;;5038315;28;19917;-78
2023/12/22 05:54:45;;;;;;;;;;;11.30;99.90;;;;;;5052686;28;20379;-79
2023/12/22 05:57:10;;;;;;;;;;;11.40;99.90;;;;;;5052857;28;19915;-79
2023/12/22 05:59:36;;;;;;;;;;;11.40;99.90;;;;;;5051470;28;20394;-78
2023/12/22 06:02:02;;;;;;;;;;;11.40;99.90;;;;;;5051481;28;20011;-78
2023/12/22 06:04:28;;;;;;;;;;;11.40;99.90;;;;;;5055379;28;19916;-78
2023/12/22 06:06:53;;;;;;;;;;;11.40;99.90;;;;;;5056259;28;19909;-79
2023/12/22 06:09:20;;;;;;;;;;;11.50;99.90;;;;;;5056352;28;19913;-78
2023/12/22 06:11:46;;;;;;;;;;;11.40;99.90;;;;;;5056517;28;19909;-79
2023/12/22 06:14:11;;;;;;;;;;;11.50;99.90;;;;;;5055472;28;19916;-78
2023/12/22 06:16:37;;;;;;;;;;;11.50;99.90;;;;;;5056259;28;19909;-78
2023/12/22 06:19:02;;;;;;;;;;;11.50;99.90;;;;;;5055049;28;20243;-78
2023/12/22 06:21:28;;;;;;;;;;;11.50;99.90;;;;;;5055328;28;19999;-78
2023/12/22 06:23:54;;;;;;;;;;;11.50;99.90;;;;;;5055826;28;19908;-78
2023/12/22 06:26:19;;;;;;;;;;;11.50;99.90;;;;;;5055046;28;19913;-79
2023/12/22 06:28:45;;;;;;;;;;;11.50;99.90;;;;;;5054690;28;19935;-79
2023/12/22 06:31:21;;;;;;;;;;;11.50;99.90;;;;;;5054729;28;19959;-79
2023/12/22 06:33:50;;;;;;;;;;;11.50;99.90;;;;;;5056015;28;19996;-78
2023/12/22 06:36:23;;;;;;;;;;;11.60;99.90;;;;;;5069130;28;19908;-79
2023/12/22 06:38:49;;;;;;;;;;;11.50;99.90;;;;;;5074485;28;20279;-79
2023/12/22 06:41:18;;;;;;;;;;;11.50;99.90;;;;;;5063362;28;20371;-79
2023/12/22 06:43:43;;;;;;;;;;;11.50;99.90;;;;;;5034155;28;19920;-78
2023/12/22 06:46:16;;;;;;;;;;;11.50;99.90;;;;;;5034740;28;20386;-78
2023/12/22 06:48:41;;;;;;;;;;;11.50;99.90;;;;;;5039679;28;19917;-79
2023/12/22 06:51:07;;;;;;;;;;;11.60;99.90;;;;;;5044309;28;20356;-78
2023/12/22 06:53:32;;;;;;;;;;;11.60;99.90;;;;;;5042297;28;19913;-78
2023/12/22 06:55:58;;;;;;;;;;;11.60;99.90;;;;;;5042552;28;20053;-79
2023/12/22 06:58:25;;;;;;;;;;;11.60;99.90;;;;;;5053443;28;19913;-80
2023/12/22 07:00:51;;;;;;;;;;;11.60;99.90;;;;;;5041389;28;19913;-78
2023/12/22 07:03:17;;;;;;;;;;;11.60;99.90;;;;;;5055902;28;19920;-78
2023/12/22 07:05:43;;;;;;;;;;;11.60;99.90;;;;;;5052788;28;20263;-78
2023/12/22 07:08:08;;;;;;;;;;;11.60;99.90;;;;;;5039562;28;19947;-79
2023/12/22 07:10:34;;;;;;;;;;;11.60;99.90;;;;;;5053216;28;19913;-80
2023/12/22 07:12:59;;;;;;;;;;;11.60;99.90;;;;;;5041548;28;20296;-80
2023/12/22 07:15:25;;;;;;;;;;;11.60;99.90;;;;;;5052769;28;20320;-78
2023/12/22 07:17:50;;;;;;;;;;;11.70;99.90;;;;;;5052377;28;19991;-78
2023/12/22 07:20:16;;;;;;;;;;;11.70;99.90;;;;;;5053991;28;19967;-78
2023/12/22 07:22:44;;;;;;;;;;;11.70;99.90;;;;;;5051280;28;19956;-78
2023/12/22 07:25:10;;;;;;;;;;;11.70;99.90;;;;;;5034794;28;19921;-78
2023/12/22 07:27:35;;;;;;;;;;;11.70;99.90;;;;;;5040996;28;19971;-79
2023/12/22 07:30:01;;;;;;;;;;;11.70;99.90;;;;;;5045896;28;20031;-78
2023/12/22 07:32:26;;;;;;;;;;;11.70;99.90;;;;;;5073943;28;19938;-77
2023/12/22 07:34:52;;;;;;;;;;;11.60;99.90;;;;;;5075074;28;20221;-78
2023/12/22 07:37:17;;;;;;;;;;;11.70;99.90;;;;;;5081169;28;20386;-79
2023/12/22 07:39:45;;;;;;;;;;;11.70;99.90;;;;;;5071278;28;19913;-78
2023/12/22 07:42:10;;;;;;;;;;;11.70;99.90;;;;;;5054282;28;19928;-80
2023/12/22 07:44:36;;;;;;;;;;;11.60;99.90;;;;;;5072790;28;19916;-78
2023/12/22 07:47:01;;;;;;;;;;;11.60;99.90;;;;;;5051171;28;19962;-79
2023/12/22 07:49:27;;;;;;;;;;;11.60;99.90;;;;;;5041723;28;19913;-79
2023/12/22 07:51:53;;;;;;;;;;;11.60;99.90;;;;;;5059627;28;20371;-80
2023/12/22 07:54:18;;;;;;;;;;;11.70;99.90;;;;;;5044086;28;19968;-80
2023/12/22 07:56:44;;;;;;;;;;;11.70;99.90;;;;;;5063891;28;19916;-79
2023/12/22 07:59:09;;;;;;;;;;;11.70;99.90;;;;;;5070698;28;19917;-78
2023/12/22 08:01:35;;;;;;;;;;;11.70;99.90;;;;;;5052805;28;20424;-77
2023/12/22 08:04:00;;;;;;;;;;;11.70;99.90;;;;;;5062007;28;20356;-78
2023/12/22 08:06:26;;;;;;;;;;;11.70;99.90;;;;;;5057567;28;20007;-78
2023/12/22 08:08:51;;;;;;;;;;;11.70;99.90;;;;;;5046797;28;19917;-80
2023/12/22 08:11:17;;;;;;;;;;;11.70;99.90;;;;;;5043087;28;19912;-77
2023/12/22 08:13:42;;;;;;;;;;;11.70;99.90;;;;;;5048376;28;19920;-77
2023/12/22 08:16:08;;;;;;;;;;;11.70;99.90;;;;;;5061696;28;19951;-81
2023/12/22 08:18:33;;;;;;;;;;;11.80;99.90;;;;;;5064624;28;20033;-81
2023/12/22 08:20:59;;;;;;;;;;;11.80;99.90;;;;;;5060733;28;20014;-77
2023/12/22 08:23:24;;;;;;;;;;;11.80;99.90;;;;;;5046732;28;19912;-77
2023/12/22 08:25:50;;;;;;;;;;;11.80;99.90;;;;;;5068771;28;19952;-79
2023/12/22 08:28:15;;;;;;;;;;;11.80;99.90;;;;;;5066956;28;19947;-77
2023/12/22 08:30:41;;;;;;;;;;;11.90;99.90;;;;;;5053505;28;19920;-80
2023/12/22 08:33:06;;;;;;;;;;;11.90;99.90;;;;;;5064460;28;19916;-79
2023/12/22 08:35:32;;;;;;;;;;;11.90;99.90;;;;;;5066937;28;19958;-80
2023/12/22 08:37:57;;;;;;;;;;;11.90;99.90;;;;;;5070910;28;19908;-81
2023/12/22 08:40:25;;;;;;;;;;;11.90;99.90;;;;;;5070682;28;19912;-79
2023/12/22 08:42:54;;;;;;;;;;;11.90;99.90;;;;;;5045454;28;19977;-78
2023/12/22 08:45:20;;;;;;;;;;;11.90;99.90;;;;;;5046073;28;19923;-80
2023/12/22 08:47:46;;;;;;;;;;;11.90;99.90;;;;;;5063320;28;19917;-80
2023/12/22 08:50:12;;;;;;;;;;;11.90;99.90;;;;;;5059663;28;19917;-81
2023/12/22 08:52:38;;;;;;;;;;;12.00;99.90;;;;;;5051796;28;19956;-80
2023/12/22 08:55:05;;;;;;;;;;;12.10;99.90;;;;;;5046935;28;19916;-78
2023/12/22 08:57:31;;;;;;;;;;;12.10;99.90;;;;;;5047199;28;19920;-78
2023/12/22 08:59:57;;;;;;;;;;;12.10;99.90;;;;;;5066938;28;19946;-81
2023/12/22 09:02:22;;;;;;;;;;;12.20;99.90;;;;;;5061360;28;19913;-78
2023/12/22 09:04:48;;;;;;;;;;;12.20;99.90;;;;;;5058911;28;19965;-80
2023/12/22 09:07:14;;;;;;;;;;;12.20;99.90;;;;;;5045109;28;19921;-77
2023/12/22 09:09:40;;;;;;;;;;;12.20;99.90;;;;;;5049793;28;20358;-82
2023/12/22 09:12:05;;;;;;;;;;;12.30;99.90;;;;;;5054933;28;19917;-81
2023/12/22 09:14:31;;;;;;;;;;;12.50;99.90;;;;;;5068464;28;19916;-77
2023/12/22 09:16:57;;;;;;;;;;;12.40;99.90;;;;;;5065516;28;19935;-77
2023/12/22 09:19:22;;;;;;;;;;;12.40;99.90;;;;;;5063956;28;20367;-81
2023/12/22 09:21:48;;;;;;;;;;;12.20;99.90;;;;;;5057859;28;19913;-77
2023/12/22 09:24:16;;;;;;;;;;;12.10;99.90;;;;;;5060430;28;19920;-80
2023/12/22 09:26:41;;;;;;;;;;;12.10;99.90;;;;;;5037094;28;20478;-77
2023/12/22 09:29:07;;;;;;;;;;;12.10;99.90;;;;;;5066347;28;20011;-79
2023/12/22 09:31:32;;;;;;;;;;;12.00;99.90;;;;;;5038375;28;20015;-78
2023/12/22 09:33:58;;;;;;;;;;;12.00;99.90;;;;;;5068355;28;19926;-79
2023/12/22 09:36:23;;;;;;;;;;;12.00;99.90;;;;;;5060721;28;19919;-77
2023/12/22 09:38:49;;;;;;;;;;;12.10;99.90;;;;;;5035348;28;19934;-77
2023/12/22 09:41:15;;;;;;;;;;;11.90;99.90;;;;;;5072273;28;20366;-77
2023/12/22 09:43:42;;;;;;;;;;;12.00;99.90;;;;;;5071196;28;20383;-80
2023/12/22 09:46:07;;;;;;;;;;;12.10;99.90;;;;;;5075091;28;19913;-80
2023/12/22 09:48:33;;;;;;;;;;;12.10;99.90;;;;;;5048665;28;20321;-78
2023/12/22 09:50:59;;;;;;;;;;;12.20;99.90;;;;;;5073532;28;20349;-77
2023/12/22 09:53:26;;;;;;;;;;;12.30;99.90;;;;;;5051854;28;19971;-77
2023/12/22 09:55:53;;;;;;;;;;;12.20;99.90;;;;;;5075404;28;19920;-80
2023/12/22 09:58:19;;;;;;;;;;;12.20;99.90;;;;;;5076227;28;19936;-80
2023/12/22 10:00:45;;;;;;;;;;;12.10;99.90;;;;;;5068455;28;20003;-79
2023/12/22 10:03:12;;;;;;;;;;;12.10;99.90;;;;;;5054929;28;19921;-79
2023/12/22 10:05:37;;;;;;;;;;;12.10;99.90;;;;;;5046790;28;20406;-80
2023/12/22 10:08:05;;;;;;;;;;;12.20;99.90;;;;;;5053553;28;19916;-80
2023/12/22 10:10:32;;;;;;;;;;;12.30;99.90;;;;;;5049791;28;19919;-78
2023/12/22 10:12:58;;;;;;;;;;;12.50;99.90;;;;;;5070502;28;19954;-81
2023/12/22 10:15:24;;;;;;;;;;;12.40;99.90;;;;;;5041930;28;19912;-77
2023/12/22 10:17:50;;;;;;;;;;;12.40;99.90;;;;;;5069077;28;20004;-80
2023/12/22 10:20:16;;;;;;;;;;;12.30;99.90;;;;;;5065937;28;19917;-77
2023/12/22 10:22:41;;;;;;;;;;;12.30;99.90;;;;;;5063413;28;20398;-80
2023/12/22 10:25:08;;;;;;;;;;;12.30;99.90;;;;;;5068007;28;19927;-80
2023/12/22 10:27:35;;;;;;;;;;;12.20;99.90;;;;;;5068252;28;19949;-77
2023/12/22 10:30:00;;;;;;;;;;;12.00;99.90;;;;;;5059119;28;19921;-81
2023/12/22 10:32:26;;;;;;;;;;;11.90;99.90;;;;;;5054908;28;19966;-77
2023/12/22 10:34:52;;;;;;;;;;;11.90;99.90;;;;;;5041319;28;19922;-77
2023/12/22 10:37:18;;;;;;;;;;;11.90;99.90;;;;;;5071741;28;19919;-81
2023/12/22 10:39:48;;;;;;;;;;;11.90;99.90;;;;;;5073539;28;19915;-81
2023/12/22 10:42:13;;;;;;;;;;;11.90;99.90;;;;;;5046773;28;19962;-77
2023/12/22 10:44:40;;;;;;;;;;;11.90;99.90;;;;;;5068429;28;19956;-79
2023/12/22 10:47:06;;;;;;;;;;;11.90;99.90;;;;;;5070522;28;19913;-80
2023/12/22 10:49:32;;;;;;;;;;;11.90;99.90;;;;;;5062447;28;19916;-81
2023/12/22 10:51:57;;;;;;;;;;;11.90;99.90;;;;;;5057116;28;19970;-82
2023/12/22 10:54:23;;;;;;;;;;;12.00;99.90;;;;;;5063708;28;19974;-79
2023/12/22 10:56:48;;;;;;;;;;;12.00;99.90;;;;;;5051358;28;19916;-80
2023/12/22 10:59:18;;;;;;;;;;;12.00;99.90;;;;;;5040560;28;19944;-78
2023/12/22 11:01:45;;;;;;;;;;;12.10;99.90;;;;;;5058696;28;19916;-78
2023/12/22 11:04:13;;;;;;;;;;;12.10;99.90;;;;;;5064712;28;20317;-78
2023/12/22 11:06:41;;;;;;;;;;;12.10;99.90;;;;;;5055008;28;19915;-81
2023/12/22 11:09:12;;;;;;;;;;;12.20;99.90;;;;;;5037043;28;19921;-81
2023/12/22 11:11:38;;;;;;;;;;;12.20;99.90;;;;;;5037249;28;19920;-78
2023/12/22 11:14:04;;;;;;;;;;;12.20;99.90;;;;;;5049676;28;19913;-80
2023/12/22 11:16:30;;;;;;;;;;;12.20;99.90;;;;;;5056193;28;19950;-78
2023/12/22 11:18:57;;;;;;;;;;;12.30;99.90;;;;;;5056811;28;19938;-79
2023/12/22 11:21:23;;;;;;;;;;;12.30;99.90;;;;;;5073267;28;19946;-76
2023/12/22 11:23:52;;;;;;;;;;;12.30;99.90;;;;;;5070824;28;19920;-80
2023/12/22 11:26:18;;;;;;;;;;;12.30;99.90;;;;;;5064081;28;19924;-80
2023/12/22 11:28:48;;;;;;;;;;;12.30;99.90;;;;;;5055488;28;19940;-79
2023/12/22 11:31:14;;;;;;;;;;;12.30;99.90;;;;;;5069791;28;19927;-78
2023/12/22 11:33:46;;;;;;;;;;;12.30;99.90;;;;;;5047995;28;20007;-80
2023/12/22 11:36:13;;;;;;;;;;;12.30;99.90;;;;;;5045508;28;20031;-80
2023/12/22 11:38:39;;;;;;;;;;;12.40;99.90;;;;;;5036518;28;19909;-80
2023/12/22 11:41:06;;;;;;;;;;;12.40;99.90;;;;;;5044470;28;19913;-76
2023/12/22 11:43:33;;;;;;;;;;;12.40;99.90;;;;;;5079897;28;19916;-78
2023/12/22 11:46:04;;;;;;;;;;;12.50;99.90;;;;;;5051739;28;20004;-77
2023/12/22 11:48:30;;;;;;;;;;;12.50;99.90;;;;;;5036393;28;20109;-78
2023/12/22 11:50:55;;;;;;;;;;;12.50;99.90;;;;;;5071623;28;20006;-77
2023/12/22 11:53:22;;;;;;;;;;;12.50;99.90;;;;;;5056078;28;19920;-81
2023/12/22 11:56:05;;;;;;;;;;;12.60;99.90;;;;;;5055880;28;20340;-81
2023/12/22 11:58:34;;;;;;;;;;;12.60;99.90;;;;;;5074379;28;19916;-81
2023/12/22 12:01:01;;;;;;;;;;;12.60;99.90;;;;;;5051834;28;19912;-81
2023/12/22 12:03:27;;;;;;;;;;;12.60;99.90;;;;;;5073863;28;19958;-77
2023/12/22 12:06:14;;;;;;;;;;;12.60;99.90;;;;;;5072777;28;19913;-77
2023/12/22 12:08:39;;;;;;;;;;;12.60;99.90;;;;;;5073656;28;19928;-81
2023/12/22 12:11:06;;;;;;;;;;;12.70;99.90;;;;;;5050784;28;19913;-77
2023/12/22 12:13:33;;;;;;;;;;;12.60;99.90;;;;;;5054117;28;19913;-81
2023/12/22 12:16:01;;;;;;;;;;;12.50;99.90;;;;;;5038755;28;19920;-81
2023/12/22 12:18:29;;;;;;;;;;;12.50;99.90;;;;;;5074032;28;19914;-79
2023/12/22 12:20:55;;;;;;;;;;;12.40;99.90;;;;;;5070541;28;19912;-80
2023/12/22 12:23:23;;;;;;;;;;;12.30;99.90;;;;;;5044930;28;19919;-79
2023/12/22 12:25:49;;;;;;;;;;;12.40;99.90;;;;;;5057393;28;19935;-79
2023/12/22 12:28:17;;;;;;;;;;;12.30;99.90;;;;;;5073791;28;19924;-79
2023/12/22 12:30:43;;;;;;;;;;;12.40;99.90;;;;;;5072073;28;19925;-77
2023/12/22 12:33:09;;;;;;;;;;;12.40;99.90;;;;;;5053657;28;19928;-81
2023/12/22 12:35:35;;;;;;;;;;;12.40;99.90;;;;;;5060277;28;19973;-80
2023/12/22 12:38:00;;;;;;;;;;;12.50;99.90;;;;;;5072843;28;19920;-76
2023/12/22 12:40:30;;;;;;;;;;;12.50;99.90;;;;;;5055920;28;20287;-77
2023/12/22 12:42:59;;;;;;;;;;;12.50;99.90;;;;;;5056179;28;20007;-80
2023/12/22 12:45:25;;;;;;;;;;;12.40;99.90;;;;;;5053497;28;19920;-80
2023/12/22 12:48:03;;;;;;;;;;;12.40;99.90;;;;;;5053542;28;20406;-79
2023/12/22 12:50:30;;;;;;;;;;;12.40;99.90;;;;;;5068999;28;19912;-77
2023/12/22 12:52:56;;;;;;;;;;;12.50;99.90;;;;;;5054431;28;19912;-80
2023/12/22 12:55:21;;;;;;;;;;;12.40;99.90;;;;;;5054435;28;20011;-80
2023/12/22 12:57:53;;;;;;;;;;;12.40;99.90;;;;;;5056473;28;19913;-80
2023/12/22 13:00:29;;;;;;;;;;;12.40;99.90;;;;;;5053392;28;19940;-80
2023/12/22 13:03:00;;;;;;;;;;;12.40;99.90;;;;;;5052098;28;20382;-77
2023/12/22 13:05:25;;;;;;;;;;;12.40;99.90;;;;;;5055065;28;19908;-78
2023/12/22 13:07:51;;;;;;;;;;;12.40;99.90;;;;;;5057552;28;19927;-77
2023/12/22 13:10:24;;;;;;;;;;;12.40;99.90;;;;;;5068992;28;20291;-79
2023/12/22 13:12:50;;;;;;;;;;;12.40;99.90;;;;;;5038453;28;19917;-76
2023/12/22 13:15:16;;;;;;;;;;;12.40;99.90;;;;;;5035230;28;19916;-79
2023/12/22 13:17:42;;;;;;;;;;;12.40;99.90;;;;;;5066764;28;20375;-79
2023/12/22 13:20:09;;;;;;;;;;;12.40;99.90;;;;;;5055326;28;19916;-79
2023/12/22 13:22:34;;;;;;;;;;;12.40;99.90;;;;;;5064803;28;20003;-80
2023/12/22 13:25:00;;;;;;;;;;;12.40;99.90;;;;;;5042435;28;20004;-80
2023/12/22 13:27:25;;;;;;;;;;;12.40;99.90;;;;;;5064134;28;19923;-80
2023/12/22 13:29:52;;;;;;;;;;;12.40;99.90;;;;;;5054592;28;19913;-77
2023/12/22 13:32:18;;;;;;;;;;;12.40;99.90;;;;;;5070568;28;19924;-79
2023/12/22 13:34:50;;;;;;;;;;;12.40;99.90;;;;;;5073457;28;20046;-79
2023/12/22 13:37:16;;;;;;;;;;;12.40;99.90;;;;;;5082460;28;19947;-80
2023/12/22 13:39:42;;;;;;;;;;;12.50;99.90;;;;;;5054693;28;19908;-77
2023/12/22 13:42:15;;;;;;;;;;;12.50;99.90;;;;;;5072598;28;20046;-80
2023/12/22 13:44:46;;;;;;;;;;;12.50;99.90;;;;;;5086491;28;19912;-80
2023/12/22 13:47:13;;;;;;;;;;;12.50;99.90;;;;;;5075520;28;19913;-79
2023/12/22 13:49:39;;;;;;;;;;;12.40;99.90;;;;;;5043271;28;20024;-80
2023/12/22 13:52:07;;;;;;;;;;;12.50;99.90;;;;;;5054392;28;19997;-80
2023/12/22 13:54:33;;;;;;;;;;;12.50;99.90;;;;;;5054695;28;19908;-80
2023/12/22 13:56:59;;;;;;;;;;;12.50;99.90;;;;;;5065479;28;19917;-80
2023/12/22 13:59:32;;;;;;;;;;;12.40;99.90;;;;;;5034793;28;19916;-79
2023/12/22 14:01:57;;;;;;;;;;;12.40;99.90;;;;;;5034680;28;19923;-79
2023/12/22 14:04:23;;;;;;;;;;;12.20;99.90;;;;;;5072867;28;20290;-79
2023/12/22 14:06:48;;;;;;;;;;;12.10;99.90;;;;;;5071943;28;19924;-79
2023/12/22 14:09:17;;;;;;;;;;;12.10;99.90;;;;;;5054053;28;19949;-77
2023/12/22 14:11:43;;;;;;;;;;;12.10;99.90;;;;;;5053794;28;20375;-77